Time;durP1;ratioP1;P1;durP2;ratioP2;P2;SDS_P1;SDS_P2;PMS_P1;PMS_P2;Temp;Humidity;BMP_temperature;BMP_pressure;BME280_temperature;BME280_humidity;BME280_pressure;Samples;Min_cycle;Max_cycle;Signal;HPM_P1;HPM_P2
2023/05/06 00:01:23;;;;;;;11.80;10.60;;;;;;;12.85;100.00;96182.22;7418427;19;20405;-78
2023/05/06 00:03:50;;;;;;;10.77;9.87;;;;;;;12.77;100.00;96188.47;7436439;19;20420;-78
2023/05/06 00:06:17;;;;;;;10.20;9.30;;;;;;;12.80;100.00;96187.78;7434855;19;20397;-77
2023/05/06 00:08:45;;;;;;;16.30;9.87;;;;;;;12.89;100.00;96191.03;7418078;19;20453;-75
2023/05/06 00:11:12;;;;;;;10.30;9.20;;;;;;;13.03;100.00;96203.84;7400425;19;20369;-75
2023/05/06 00:13:40;;;;;;;9.97;9.17;;;;;;;13.12;100.00;96201.03;7401339;19;20777;-75
2023/05/06 00:16:07;;;;;;;9.67;8.87;;;;;;;13.24;100.00;96196.41;7407603;19;20373;-76
2023/05/06 00:18:34;;;;;;;9.40;8.70;;;;;;;13.21;100.00;96198.97;7411600;19;20967;-75
2023/05/06 00:21:01;;;;;;;9.50;8.63;;;;;;;13.20;100.00;96200.84;7399193;19;20925;-75
2023/05/06 00:23:28;;;;;;;8.27;7.57;;;;;;;13.08;100.00;96194.84;7402005;19;20696;-75
2023/05/06 00:25:55;;;;;;;8.80;8.10;;;;;;;13.05;100.00;96191.00;7399233;19;20392;-76
2023/05/06 00:28:21;;;;;;;10.20;8.57;;;;;;;13.07;100.00;96198.63;7399877;19;20949;-75
2023/05/06 00:30:48;;;;;;;9.27;7.60;;;;;;;13.01;100.00;96201.56;7399039;19;20369;-75
2023/05/06 00:33:15;;;;;;;10.63;7.67;;;;;;;13.02;100.00;96205.75;7400744;19;20427;-75
2023/05/06 00:35:42;;;;;;;6.60;6.10;;;;;;;12.85;100.00;96187.53;7400441;19;20365;-75
2023/05/06 00:38:14;;;;;;;8.67;7.87;;;;;;;12.85;100.00;96208.75;7400201;19;20376;-75
2023/05/06 00:40:41;;;;;;;7.77;7.07;;;;;;;12.76;100.00;96189.59;7399028;19;20380;-75
2023/05/06 00:43:08;;;;;;;8.33;7.10;;;;;;;12.76;100.00;96192.25;7399381;19;20389;-75
2023/05/06 00:45:36;;;;;;;9.80;8.10;;;;;;;12.73;100.00;96211.50;7400096;19;20393;-75
2023/05/06 00:48:06;;;;;;;8.47;7.70;;;;;;;12.60;100.00;96180.88;7399758;19;20397;-75
2023/05/06 00:50:34;;;;;;;8.43;7.53;;;;;;;12.66;100.00;96201.47;7398850;19;20353;-75
2023/05/06 00:53:04;;;;;;;9.27;8.47;;;;;;;12.54;100.00;96182.22;7397250;19;20372;-75
2023/05/06 00:55:31;;;;;;;8.60;7.73;;;;;;;12.66;100.00;96214.75;7398454;19;20411;-74
2023/05/06 00:57:58;;;;;;;7.30;6.60;;;;;;;12.42;100.00;96183.88;7397047;19;20399;-74
2023/05/06 01:00:25;;;;;;;8.70;7.90;;;;;;;12.33;100.00;96172.63;7399638;19;20905;-74
2023/05/06 01:02:52;;;;;;;8.17;7.57;;;;;;;12.30;100.00;96175.97;7397220;19;20390;-74
2023/05/06 01:05:22;;;;;;;8.47;7.77;;;;;;;12.34;100.00;96203.34;7398972;19;20376;-74
2023/05/06 01:08:02;;;;;;;14.60;7.77;;;;;;;12.39;100.00;96221.66;7399098;19;20347;-74
2023/05/06 01:10:46;;;;;;;7.70;7.10;;;;;;;12.30;100.00;96213.09;7396980;19;20380;-74
2023/05/06 01:13:33;;;;;;;6.37;5.77;;;;;;;12.14;100.00;96199.78;7399757;19;20436;-74
2023/05/06 01:16:03;;;;;;;8.27;6.20;;;;;;;11.82;100.00;96172.44;7397726;19;20421;-74
2023/05/06 01:18:32;;;;;;;6.80;6.20;;;;;;;12.13;100.00;96227.41;7399408;19;20392;-74
2023/05/06 01:21:00;;;;;;;6.03;5.50;;;;;;;11.82;100.00;96175.09;7398402;19;20409;-74
2023/05/06 01:23:27;;;;;;;7.13;6.10;;;;;;;12.10;100.00;96227.31;7396988;19;20344;-75
2023/05/06 01:25:54;;;;;;;5.80;5.20;;;;;;;11.83;100.00;96189.88;7397010;19;20400;-74
2023/05/06 01:28:21;;;;;;;6.10;5.50;;;;;;;12.04;100.00;96226.03;7399272;19;20401;-74
2023/05/06 01:30:51;;;;;;;9.70;6.63;;;;;;;12.07;100.00;96242.00;7397111;19;20376;-74
2023/05/06 01:33:24;;;;;;;9.13;5.40;;;;;;;12.04;100.00;96233.97;7398580;19;20412;-74
2023/05/06 01:35:54;;;;;;;6.23;5.73;;;;;;;12.12;100.00;96243.66;7398588;19;20360;-74
2023/05/06 01:38:34;;;;;;;5.63;4.70;;;;;;;12.13;100.00;96232.69;7395104;19;20433;-74
2023/05/06 01:41:02;;;;;;;6.50;5.03;;;;;;;12.14;100.00;96233.47;7397881;19;20384;-74
2023/05/06 01:43:36;;;;;;;5.53;5.03;;;;;;;12.16;100.00;96239.22;7395918;19;20425;-74
2023/05/06 01:46:04;;;;;;;9.03;5.23;;;;;;;11.95;100.00;96191.72;7397306;19;20923;-74
2023/05/06 01:48:35;;;;;;;5.00;4.60;;;;;;;11.95;100.00;96183.00;7395318;19;20373;-74
2023/05/06 01:51:02;;;;;;;4.70;4.30;;;;;;;12.08;100.00;96195.09;7398032;19;20368;-74
2023/05/06 01:53:29;;;;;;;8.80;4.90;;;;;;;12.13;100.00;96216.03;7400569;19;20390;-74
2023/05/06 01:55:58;;;;;;;6.77;5.87;;;;;;;12.03;100.00;96192.69;7401135;19;20366;-74
2023/05/06 01:58:25;;;;;;;5.80;5.30;;;;;;;12.02;100.00;96202.50;7395777;19;20420;-74
2023/05/06 02:00:52;;;;;;;10.53;5.40;;;;;;;11.94;100.00;96192.06;7397652;19;20396;-74
2023/05/06 02:03:19;;;;;;;6.37;5.73;;;;;;;11.85;100.00;96189.53;7396838;19;20381;-74
2023/05/06 02:05:46;;;;;;;5.97;5.33;;;;;;;11.63;100.00;96188.16;7397258;19;20397;-75
2023/05/06 02:08:13;;;;;;;5.67;5.10;;;;;;;11.87;100.00;96207.75;7397035;19;20749;-74
2023/05/06 02:10:40;;;;;;;5.97;5.47;;;;;;;11.77;100.00;96207.09;7395973;19;20409;-74
2023/05/06 02:13:10;;;;;;;5.30;4.90;;;;;;;11.46;100.00;96170.66;7396130;19;20372;-74
2023/05/06 02:15:37;;;;;;;6.73;6.13;;;;;;;11.87;100.00;96205.09;7394236;19;20373;-75
2023/05/06 02:18:07;;;;;;;5.63;5.03;;;;;;;11.73;100.00;96190.31;7395441;19;20373;-74
2023/05/06 02:20:34;;;;;;;7.10;5.40;;;;;;;11.71;100.00;96192.53;7394305;19;20393;-75
2023/05/06 02:23:01;;;;;;;5.43;5.00;;;;;;;11.67;100.00;96177.66;7395681;19;20385;-74
2023/05/06 02:25:28;;;;;;;6.50;6.00;;;;;;;11.87;100.00;96192.63;7393991;19;20944;-75
2023/05/06 02:27:55;;;;;;;6.60;5.17;;;;;;;11.94;100.00;96195.47;7395338;19;20489;-74
2023/05/06 02:30:22;;;;;;;5.83;5.43;;;;;;;12.07;100.00;96212.09;7394462;19;20385;-75
2023/05/06 02:32:49;;;;;;;7.00;6.40;;;;;;;12.05;100.00;96211.66;7396226;19;20396;-74
2023/05/06 02:35:16;;;;;;;6.00;5.53;;;;;;;11.77;100.00;96171.91;7393902;19;21039;-75
2023/05/06 02:37:43;;;;;;;5.57;5.17;;;;;;;12.01;100.00;96202.81;7392353;19;20922;-75
2023/05/06 02:40:10;;;;;;;13.00;6.07;;;;;;;11.93;100.00;96191.28;7392624;19;20469;-74
2023/05/06 02:42:37;;;;;;;7.43;5.80;;;;;;;12.03;100.00;96204.06;7397639;19;20353;-74
2023/05/06 02:45:05;;;;;;;5.67;5.27;;;;;;;11.82;100.00;96174.31;7394459;19;20355;-74
2023/05/06 02:47:32;;;;;;;6.67;6.07;;;;;;;11.83;100.00;96197.06;7397450;19;20747;-74
2023/05/06 02:49:59;;;;;;;9.97;6.40;;;;;;;11.56;100.00;96161.47;7392184;19;20492;-74
2023/05/06 02:52:26;;;;;;;8.17;7.20;;;;;;;11.64;100.00;96183.63;7396829;19;20658;-74
2023/05/06 02:54:53;;;;;;;8.27;7.47;;;;;;;11.72;100.00;96183.47;7393757;19;20377;-74
2023/05/06 02:57:20;;;;;;;7.63;6.80;;;;;;;11.75;100.00;96184.69;7395704;19;20384;-74
2023/05/06 02:59:47;;;;;;;6.73;6.13;;;;;;;11.74;100.00;96186.56;7392713;19;20400;-74
2023/05/06 03:02:14;;;;;;;9.20;8.37;;;;;;;11.80;100.00;96193.22;7395556;19;20451;-74
2023/05/06 03:04:41;;;;;;;9.80;7.07;;;;;;;11.75;100.00;96166.94;7393988;19;20372;-74
2023/05/06 03:07:08;;;;;;;7.60;7.00;;;;;;;11.64;100.00;96173.06;7402955;19;20408;-74
2023/05/06 03:09:35;;;;;;;8.47;7.70;;;;;;;11.65;100.00;96161.34;7399122;19;20440;-74
2023/05/06 03:12:02;;;;;;;8.63;7.83;;;;;;;11.59;100.00;96163.44;7403094;19;20373;-74
2023/05/06 03:14:30;;;;;;;11.17;8.03;;;;;;;11.55;100.00;96150.13;7401243;19;20923;-74
2023/05/06 03:16:58;;;;;;;8.50;7.70;;;;;;;11.83;100.00;96187.22;7402811;19;20738;-74
2023/05/06 03:19:25;;;;;;;9.03;7.90;;;;;;;11.67;100.00;96175.00;7399495;19;20443;-75
2023/05/06 03:21:52;;;;;;;9.10;8.20;;;;;;;11.77;100.00;96199.16;7402878;19;20368;-74
2023/05/06 03:24:19;;;;;;;7.60;6.90;;;;;;;11.69;100.00;96184.16;7400984;19;20364;-74
2023/05/06 03:26:47;;;;;;;7.80;6.53;;;;;;;12.00;100.00;96202.06;7402513;19;20380;-74
2023/05/06 03:29:14;;;;;;;7.10;6.50;;;;;;;12.10;100.00;96206.09;7399690;19;20432;-74
2023/05/06 03:31:43;;;;;;;7.97;7.27;;;;;;;12.14;100.00;96191.84;7403403;19;20429;-74
2023/05/06 03:34:11;;;;;;;6.83;6.30;;;;;;;12.18;100.00;96207.84;7417216;19;21003;-74
2023/05/06 03:36:38;;;;;;;8.23;6.77;;;;;;;11.91;100.00;96182.91;7399626;19;20372;-74
2023/05/06 03:39:05;;;;;;;7.40;6.80;;;;;;;11.92;100.00;96210.16;7401063;19;20384;-74
2023/05/06 03:41:34;;;;;;;7.23;6.57;;;;;;;11.96;100.00;96217.09;7399311;19;20400;-74
2023/05/06 03:44:01;;;;;;;7.50;6.73;;;;;;;11.58;100.00;96167.19;7401381;19;20379;-74
2023/05/06 03:46:29;;;;;;;7.33;6.63;;;;;;;11.78;100.00;96195.41;7399267;19;20389;-74
2023/05/06 03:48:57;;;;;;;7.90;7.07;;;;;;;12.07;100.00;96196.97;7399527;19;20865;-74
2023/05/06 03:51:25;;;;;;;8.37;7.57;;;;;;;12.14;100.00;96201.66;7396792;19;20383;-74
2023/05/06 03:53:53;;;;;;;8.20;6.93;;;;;;;12.35;100.00;96218.13;7400785;19;20812;-74
2023/05/06 03:56:21;;;;;;;7.57;6.90;;;;;;;12.23;100.00;96206.81;7397334;19;20911;-74
2023/05/06 03:58:53;;;;;;;9.17;8.47;;;;;;;12.24;100.00;96203.06;7399679;19;20788;-74
2023/05/06 04:01:22;;;;;;;7.53;6.93;;;;;;;12.12;100.00;96188.75;7399209;19;20735;-74
2023/05/06 04:03:49;;;;;;;7.87;7.27;;;;;;;12.15;100.00;96200.56;7400869;19;20365;-74
2023/05/06 04:06:16;;;;;;;7.73;6.93;;;;;;;12.20;100.00;96210.94;7399062;19;20365;-74
2023/05/06 04:08:44;;;;;;;9.10;8.40;;;;;;;12.16;100.00;96217.25;7400159;19;20428;-74
2023/05/06 04:11:11;;;;;;;6.97;6.37;;;;;;;11.96;100.00;96195.91;7396881;19;20865;-74
2023/05/06 04:13:38;;;;;;;8.87;8.10;;;;;;;11.92;100.00;96204.88;7400662;19;20341;-74
2023/05/06 04:16:11;;;;;;;9.07;8.30;;;;;;;11.73;100.00;96210.75;7399468;19;20376;-75
2023/05/06 04:18:42;;;;;;;8.97;8.27;;;;;;;11.80;100.00;96216.28;7398682;19;20436;-74
2023/05/06 04:21:12;;;;;;;8.30;7.50;;;;;;;11.65;100.00;96188.59;7399375;19;20380;-75
2023/05/06 04:23:43;;;;;;;8.57;7.67;;;;;;;11.78;100.00;96219.25;7401123;19;20402;-74
2023/05/06 04:26:14;;;;;;;7.57;6.93;;;;;;;11.71;100.00;96224.31;7399838;19;20379;-75
2023/05/06 04:28:43;;;;;;;7.93;7.13;;;;;;;11.67;100.00;96209.44;7396614;19;20441;-75
2023/05/06 04:31:13;;;;;;;8.47;7.87;;;;;;;11.62;100.00;96210.47;7397967;19;20388;-74
2023/05/06 04:33:43;;;;;;;9.20;8.30;;;;;;;11.65;100.00;96232.84;7398128;19;20368;-74
2023/05/06 04:36:14;;;;;;;9.03;8.23;;;;;;;11.72;100.00;96225.09;7399509;19;20429;-74
2023/05/06 04:38:52;;;;;;;8.70;8.00;;;;;;;11.80;100.00;96234.81;7397438;19;20499;-75
2023/05/06 04:41:19;;;;;;;9.50;8.70;;;;;;;11.68;100.00;96222.34;7400471;19;20778;-74
2023/05/06 04:43:46;;;;;;;8.83;8.10;;;;;;;11.60;100.00;96204.72;7398583;19;20379;-74
2023/05/06 04:46:19;;;;;;;9.03;8.23;;;;;;;11.76;100.00;96220.69;7400319;19;20387;-74
2023/05/06 04:48:47;;;;;;;8.37;7.67;;;;;;;11.72;100.00;96228.50;7397192;19;20413;-74
2023/05/06 04:51:14;;;;;;;10.57;9.57;;;;;;;11.62;100.00;96204.38;7398163;19;20412;-74
2023/05/06 04:53:42;;;;;;;10.37;9.47;;;;;;;11.98;100.00;96230.78;7398433;19;20349;-74
2023/05/06 04:56:09;;;;;;;9.90;9.10;;;;;;;12.17;100.00;96243.41;7400223;19;20731;-74
2023/05/06 04:58:36;;;;;;;9.37;8.57;;;;;;;12.08;100.00;96232.19;7397342;19;20435;-74
2023/05/06 05:01:05;;;;;;;9.17;8.23;;;;;;;12.18;100.00;96242.31;7399900;19;20405;-74
2023/05/06 05:03:33;;;;;;;10.97;9.63;;;;;;;12.16;100.00;96227.84;7398688;19;20381;-75
2023/05/06 05:06:02;;;;;;;9.57;8.57;;;;;;;12.27;100.00;96231.53;7397925;19;20440;-74
2023/05/06 05:08:29;;;;;;;9.40;8.70;;;;;;;12.35;100.00;96234.03;7395153;19;20897;-74
2023/05/06 05:10:56;;;;;;;10.70;9.77;;;;;;;12.56;100.00;96256.94;7398760;19;20376;-75
2023/05/06 05:13:26;;;;;;;9.87;8.97;;;;;;;12.31;100.00;96233.19;7399001;19;20380;-74
2023/05/06 05:15:54;;;;;;;8.77;8.13;;;;;;;12.49;100.00;96270.75;7396649;19;20741;-74
2023/05/06 05:18:24;;;;;;;9.33;8.63;;;;;;;12.24;100.00;96232.22;7398022;19;20449;-74
2023/05/06 05:20:55;;;;;;;13.83;9.17;;;;;;;12.40;100.00;96251.56;7396804;19;20420;-75
2023/05/06 05:23:22;;;;;;;10.43;9.33;;;;;;;12.21;100.00;96236.31;7398191;19;20525;-74
2023/05/06 05:25:49;;;;;;;9.50;8.70;;;;;;;12.38;100.00;96281.09;7397085;19;20394;-75
2023/05/06 05:28:16;;;;;;;10.73;9.80;;;;;;;12.30;100.00;96265.34;7397687;19;20417;-74
2023/05/06 05:30:44;;;;;;;10.07;9.27;;;;;;;12.40;100.00;96288.69;7395955;19;20382;-75
2023/05/06 05:33:10;;;;;;;9.77;8.97;;;;;;;11.89;100.00;96211.63;7399335;19;20411;-75
2023/05/06 05:35:38;;;;;;;11.20;10.13;;;;;;;12.27;100.00;96269.41;7396704;19;20900;-74
2023/05/06 05:38:06;;;;;;;10.60;9.37;;;;;;;12.38;100.00;96278.44;7398160;19;20380;-74
2023/05/06 05:40:34;;;;;;;11.40;10.30;;;;;;;12.42;100.00;96276.66;7396494;19;20406;-74
2023/05/06 05:43:01;;;;;;;11.43;10.43;;;;;;;12.11;100.00;96239.44;7407344;19;20418;-78
2023/05/06 05:45:34;;;;;;;11.23;10.13;;;;;;;12.27;100.00;96253.50;7432865;19;20381;-78
2023/05/06 05:48:01;;;;;;;11.20;10.10;;;;;;;12.52;100.00;96274.63;7430663;19;20412;-78
2023/05/06 05:50:28;;;;;;;11.73;10.70;;;;;;;12.58;100.00;96271.38;7424275;19;20795;-75
2023/05/06 05:52:56;;;;;;;14.07;11.23;;;;;;;12.55;100.00;96263.31;7395998;19;20399;-75
2023/05/06 05:55:25;;;;;;;11.80;10.70;;;;;;;12.60;100.00;96273.69;7397205;19;20372;-75
2023/05/06 05:57:52;;;;;;;15.97;10.97;;;;;;;12.70;100.00;96281.94;7395769;19;20421;-75
2023/05/06 06:00:20;;;;;;;12.00;11.00;;;;;;;12.86;100.00;96297.88;7396837;19;20368;-75
2023/05/06 06:02:53;;;;;;;13.80;12.50;;;;;;;12.92;100.00;96301.03;7395183;19;20373;-75
2023/05/06 06:05:21;;;;;;;11.60;10.43;;;;;;;12.81;100.00;96278.75;7397047;19;20708;-75
2023/05/06 06:07:49;;;;;;;11.93;10.83;;;;;;;12.91;100.00;96305.56;7394838;19;20375;-75
2023/05/06 06:10:16;;;;;;;14.03;12.63;;;;;;;12.87;100.00;96277.41;7394453;19;20430;-75
2023/05/06 06:12:44;;;;;;;12.93;11.73;;;;;;;12.97;100.00;96279.56;7395193;19;20408;-75
2023/05/06 06:15:16;;;;;;;12.23;11.03;;;;;;;13.12;100.00;96281.44;7396387;19;20919;-75
2023/05/06 06:17:43;;;;;;;12.10;11.00;;;;;;;13.12;100.00;96284.09;7394874;19;20369;-74
2023/05/06 06:20:11;;;;;;;13.03;11.37;;;;;;;13.48;100.00;96292.91;7394908;19;20762;-74
2023/05/06 06:22:39;;;;;;;13.03;11.83;;;;;;;13.34;100.00;96285.38;7395215;19;20413;-75
2023/05/06 06:25:07;;;;;;;13.67;12.30;;;;;;;13.34;100.00;96288.03;7397059;19;20389;-75
2023/05/06 06:27:35;;;;;;;11.30;9.70;;;;;;;13.30;100.00;96314.50;7395067;19;20715;-75
2023/05/06 06:30:03;;;;;;;15.30;11.03;;;;;;;13.01;100.00;96294.44;7394308;19;20447;-74
2023/05/06 06:32:30;;;;;;;11.90;10.83;;;;;;;13.10;100.00;96304.13;7394882;19;20373;-75
2023/05/06 06:34:57;;;;;;;10.83;9.90;;;;;;;13.16;100.00;96300.88;7396181;19;20368;-74
2023/05/06 06:37:24;;;;;;;10.87;9.87;;;;;;;13.56;100.00;96306.00;7395400;19;20393;-74
2023/05/06 06:39:54;;;;;;;10.80;9.80;;;;;;;13.35;100.00;96289.56;7393240;19;20983;-75
2023/05/06 06:42:21;;;;;;;11.50;10.40;;;;;;;13.12;100.00;96304.56;7396064;19;20744;-74
2023/05/06 06:44:58;;;;;;;11.10;9.47;;;;;;;13.32;100.00;96328.22;7396946;19;20392;-75
2023/05/06 06:47:25;;;;;;;10.17;9.10;;;;;;;13.05;100.00;96301.72;7394734;19;20960;-74
2023/05/06 06:49:52;;;;;;;11.77;10.73;;;;;;;13.21;100.00;96335.16;7395307;19;20436;-75
2023/05/06 06:52:18;;;;;;;11.97;10.83;;;;;;;13.13;100.00;96306.88;7407661;19;20383;-75
2023/05/06 06:54:45;;;;;;;10.70;9.80;;;;;;;13.01;100.00;96330.84;7396997;19;20404;-74
2023/05/06 06:57:12;;;;;;;10.27;9.00;;;;;;;13.12;100.00;96323.16;7396146;19;20349;-74
2023/05/06 06:59:39;;;;;;;8.97;8.27;;;;;;;13.24;100.00;96313.25;7394675;19;20409;-74
2023/05/06 07:02:06;;;;;;;10.43;8.90;;;;;;;13.45;100.00;96328.88;7394938;19;20372;-74
2023/05/06 07:04:33;;;;;;;7.87;7.10;;;;;;;13.86;100.00;96310.81;7395011;19;20336;-74
2023/05/06 07:07:00;;;;;;;8.43;7.63;;;;;;;14.00;100.00;96319.09;7396942;19;20358;-74
2023/05/06 07:09:27;;;;;;;7.90;7.10;;;;;;;13.81;100.00;96287.19;7393718;19;20380;-74
2023/05/06 07:11:54;;;;;;;8.63;7.73;;;;;;;14.37;100.00;96316.81;7393740;19;20380;-75
2023/05/06 07:14:21;;;;;;;7.77;7.13;;;;;;;14.49;100.00;96322.03;7393398;19;20420;-75
2023/05/06 07:16:48;;;;;;;7.07;6.50;;;;;;;14.36;100.00;96317.16;7395057;19;20390;-75
2023/05/06 07:19:17;;;;;;;7.00;6.40;;;;;;;14.21;100.00;96337.41;7392002;19;20770;-74
2023/05/06 07:21:44;;;;;;;7.43;6.77;;;;;;;14.28;100.00;96350.06;7396292;19;20388;-73
2023/05/06 07:24:10;;;;;;;9.70;7.50;;;;;;;14.05;100.00;96326.81;7393497;19;20372;-74
2023/05/06 07:26:38;;;;;;;6.33;5.83;;;;;;;14.29;100.00;96351.59;7395503;19;20368;-74
2023/05/06 07:29:05;;;;;;;8.00;6.63;;;;;;;14.16;100.00;96359.72;7392262;19;20439;-74
2023/05/06 07:31:32;;;;;;;7.33;6.73;;;;;;;14.23;100.00;96343.13;7394076;19;20397;-74
2023/05/06 07:34:00;;;;;;;6.03;5.40;;;;;;;14.43;100.00;96362.53;7393057;19;20441;-74
2023/05/06 07:36:27;;;;;;;7.20;6.50;;;;;;;14.37;100.00;96337.31;7394528;19;20417;-74
2023/05/06 07:38:54;;;;;;;6.43;5.83;;;;;;;14.75;100.00;96350.66;7394005;19;20416;-74
2023/05/06 07:41:21;;;;;;;7.40;6.03;;;;;;;14.75;100.00;96366.63;7394715;19;20380;-74
2023/05/06 07:43:48;;;;;;;6.27;5.77;;;;;;;14.76;100.00;96364.72;7394546;19;20446;-74
2023/05/06 07:46:15;;;;;;;9.63;6.23;;;;;;;14.51;100.00;96366.91;7394165;19;20897;-74
2023/05/06 07:48:42;;;;;;;7.30;6.60;;;;;;;14.20;100.00;96365.09;7392402;19;20453;-74
2023/05/06 07:51:09;;;;;;;10.07;6.97;;;;;;;14.18;100.00;96360.13;7393673;19;20384;-74
2023/05/06 07:53:38;;;;;;;7.63;6.50;;;;;;;14.20;100.00;96367.75;7399062;19;20372;-74
2023/05/06 07:56:06;;;;;;;7.10;6.40;;;;;;;14.47;100.00;96364.19;7402639;19;20405;-74
2023/05/06 07:58:33;;;;;;;8.77;6.30;;;;;;;14.75;100.00;96352.53;7400030;19;20478;-74
2023/05/06 08:01:00;;;;;;;6.10;5.60;;;;;;;15.03;100.00;96384.22;7401930;19;20405;-74
2023/05/06 08:03:26;;;;;;;7.10;5.10;;;;;;;15.44;100.00;96374.66;7401457;19;20393;-74
2023/05/06 08:05:54;;;;;;;5.80;5.30;;;;;;;15.35;100.00;96379.44;7401999;19;20373;-74
2023/05/06 08:08:22;;;;;;;6.57;5.97;;;;;;;15.71;100.00;96396.06;7401841;19;20444;-75
2023/05/06 08:10:49;;;;;;;5.30;4.80;;;;;;;15.39;100.00;96388.28;7402627;19;20880;-75
2023/05/06 08:13:16;;;;;;;5.83;5.40;;;;;;;15.78;100.00;96377.50;7400569;19;20405;-75
2023/05/06 08:15:43;;;;;;;6.70;5.30;;;;;;;16.53;100.00;96392.63;7403938;19;20345;-76
2023/05/06 08:18:10;;;;;;;4.30;4.00;;;;;;;16.50;100.00;96393.34;7403339;19;20377;-76
2023/05/06 08:20:50;;;;;;;5.47;4.63;;;;;;;16.04;100.00;96387.41;7402300;19;20436;-76
2023/05/06 08:23:17;;;;;;;4.60;4.20;;;;;;;15.51;100.00;96368.69;7400605;19;20386;-76
2023/05/06 08:25:45;;;;;;;4.70;4.10;;;;;;;15.33;100.00;96371.06;7398991;19;20404;-76
2023/05/06 08:28:12;;;;;;;6.90;4.77;;;;;;;15.01;100.00;96378.50;7400312;19;20908;-76
2023/05/06 08:30:39;;;;;;;6.50;5.37;;;;;;;14.82;100.00;96381.16;7400631;19;20376;-76
2023/05/06 08:33:06;;;;;;;6.13;5.63;;;;;;;15.30;100.00;96382.41;7402747;19;20345;-75
2023/05/06 08:35:33;;;;;;;5.47;4.97;;;;;;;15.44;100.00;96361.34;7400989;19;20503;-76
2023/05/06 08:38:00;;;;;;;6.90;5.80;;;;;;;15.12;100.00;96376.78;7401066;19;20380;-75
2023/05/06 08:40:31;;;;;;;6.77;4.90;;;;;;;15.73;100.00;96396.47;7400086;19;20687;-76
2023/05/06 08:43:01;;;;;;;4.00;3.67;;;;;;;16.34;100.00;96406.13;7403348;19;20361;-75
2023/05/06 08:45:29;;;;;;;4.83;4.43;;;;;;;16.02;100.00;96374.41;7399457;19;20384;-76
2023/05/06 08:47:56;;;;;;;4.37;3.90;;;;;;;16.22;100.00;96380.41;7401712;19;20342;-76
2023/05/06 08:50:24;;;;;;;3.50;3.20;;;;;;;16.08;100.00;96389.00;7400928;19;20376;-76
2023/05/06 08:52:51;;;;;;;4.87;4.37;;;;;;;15.76;100.00;96395.75;7400237;19;20905;-76
2023/05/06 08:55:20;;;;;;;3.70;3.40;;;;;;;15.07;100.00;96391.16;7400099;19;20385;-76
2023/05/06 08:57:49;;;;;;;3.70;3.17;;;;;;;15.65;100.00;96411.59;7401171;19;20399;-76
2023/05/06 09:00:16;;;;;;;3.97;3.70;;;;;;;15.80;100.00;96386.69;7397918;19;20763;-76
2023/05/06 09:02:43;;;;;;;5.67;3.60;;;;;;;16.69;100.00;96387.88;7397342;19;20397;-75
2023/05/06 09:05:11;;;;;;;4.23;3.43;;;;;;;17.14;100.00;96384.19;7399806;19;20390;-76
2023/05/06 09:07:38;;;;;;;2.80;2.23;;;;;;;17.18;100.00;96410.16;7397830;19;20412;-76
2023/05/06 09:10:12;;;;;;;4.13;3.17;;;;;;;16.97;100.00;96400.03;7396468;19;20775;-76
2023/05/06 09:12:40;;;;;;;2.97;2.67;;;;;;;16.84;100.00;96410.97;7396808;19;20371;-76
2023/05/06 09:15:08;;;;;;;2.87;2.67;;;;;;;16.19;100.00;96400.59;7399536;19;20356;-76
2023/05/06 09:17:35;;;;;;;4.30;3.40;;;;;;;16.23;100.00;96401.41;7398635;19;20424;-76
2023/05/06 09:20:07;;;;;;;3.93;3.53;;;;;;;16.47;100.00;96400.19;7398669;19;20465;-76
2023/05/06 09:22:37;;;;;;;9.30;3.20;;;;;;;16.25;100.00;96372.47;7398269;19;20906;-76
2023/05/06 09:25:07;;;;;;;6.13;4.47;;;;;;;16.17;100.00;96380.75;7401640;19;20377;-74
2023/05/06 09:27:35;;;;;;;3.40;3.10;;;;;;;16.74;100.00;96373.47;7400109;19;20357;-74
2023/05/06 09:30:07;;;;;;;3.80;3.50;;;;;;;16.99;100.00;96416.47;7398001;19;20528;-74
2023/05/06 09:32:35;;;;;;;3.27;3.07;;;;;;;16.54;100.00;96373.56;7397300;19;20412;-74
2023/05/06 09:35:07;;;;;;;7.73;5.63;;;;;;;16.56;100.00;96407.94;7398075;19;20394;-74
2023/05/06 09:37:34;;;;;;;4.40;4.00;;;;;;;15.93;100.00;96395.25;7411120;19;20365;-73
2023/05/06 09:40:02;;;;;;;4.53;4.07;;;;;;;15.87;100.00;96394.78;7427123;19;20468;-73
2023/05/06 09:42:30;;;;;;;5.33;4.80;;;;;;;15.66;100.00;96362.47;7431527;19;20377;-74
2023/05/06 09:44:59;;;;;;;5.23;4.50;;;;;;;15.65;100.00;96379.59;7421146;19;20524;-74
2023/05/06 09:47:35;;;;;;;6.00;5.50;;;;;;;15.83;100.00;96390.53;7402687;19;20341;-74
2023/05/06 09:50:03;;;;;;;4.60;4.20;;;;;;;15.58;100.00;96387.44;7398412;19;20440;-74
2023/05/06 09:52:30;;;;;;;4.07;3.77;;;;;;;15.46;100.00;96385.72;7398247;19;20388;-74
2023/05/06 09:54:58;;;;;;;5.00;3.77;;;;;;;15.64;100.00;96402.81;7398433;19;20829;-74
2023/05/06 09:57:25;;;;;;;3.33;3.13;;;;;;;15.43;100.00;96359.03;7400164;19;20393;-74
2023/05/06 09:59:54;;;;;;;4.67;4.17;;;;;;;15.45;100.00;96378.09;7396436;19;20428;-74
2023/05/06 10:02:25;;;;;;;4.23;3.20;;;;;;;16.10;100.00;96407.31;7397728;19;20938;-74
2023/05/06 10:04:54;;;;;;;3.20;3.00;;;;;;;16.24;100.00;96396.84;7398176;19;20877;-74
2023/05/06 10:07:24;;;;;;;4.90;3.43;;;;;;;16.86;100.00;96391.91;7398459;19;20388;-75
2023/05/06 10:09:53;;;;;;;4.60;4.10;;;;;;;17.21;100.00;96398.75;7398181;19;20400;-75
2023/05/06 10:12:20;;;;;;;3.70;3.40;;;;;;;17.41;100.00;96413.47;7398977;19;20710;-75
2023/05/06 10:14:47;;;;;;;3.87;2.83;;;;;;;16.69;100.00;96395.13;7393989;19;20331;-73
2023/05/06 10:17:17;;;;;;;3.90;3.50;;;;;;;16.52;100.00;96385.75;7397134;19;20452;-76
2023/05/06 10:19:49;;;;;;;3.80;3.50;;;;;;;16.26;100.00;96381.22;7394422;19;20504;-75
2023/05/06 10:22:34;;;;;;;5.53;3.40;;;;;;;16.55;100.00;96412.47;7394410;19;20885;-75
2023/05/06 10:25:27;;;;;;;3.80;3.03;;;;;;;16.40;100.00;96415.34;7397450;19;20389;-74
2023/05/06 10:27:54;;;;;;;3.40;3.20;;;;;;;16.06;100.00;96387.81;7395063;19;20401;-74
2023/05/06 10:30:27;;;;;;;5.17;4.17;;;;;;;15.73;100.00;96367.13;7394167;19;20379;-74
2023/05/06 10:32:55;;;;;;;6.53;4.50;;;;;;;15.44;100.00;96381.88;7394824;19;20391;-74
2023/05/06 10:35:35;;;;;;;6.93;3.93;;;;;;;15.43;100.00;96399.78;7395662;19;20340;-74
2023/05/06 10:38:04;;;;;;;6.10;5.60;;;;;;;15.10;100.00;96383.59;7394323;19;20408;-74
2023/05/06 10:40:31;;;;;;;5.23;4.77;;;;;;;15.15;100.00;96364.66;7394809;19;20389;-74
2023/05/06 10:43:20;;;;;;;7.37;4.70;;;;;;;15.41;100.00;96393.25;7396649;19;20380;-74
2023/05/06 10:46:10;;;;;;;5.97;4.10;;;;;;;15.28;100.00;96387.34;7396720;19;20369;-73
2023/05/06 10:48:58;;;;;;;6.10;4.43;;;;;;;15.28;100.00;96347.38;7395357;19;20409;-73
2023/05/06 10:51:27;;;;;;;5.60;5.00;;;;;;;15.04;100.00;96319.97;7392968;19;20872;-74
2023/05/06 10:54:06;;;;;;;6.23;4.87;;;;;;;15.33;100.00;96382.47;7395122;19;20380;-73
2023/05/06 10:56:33;;;;;;;4.57;4.23;;;;;;;15.98;100.00;96381.59;7393859;19;20417;-73
2023/05/06 10:59:08;;;;;;;5.93;5.43;;;;;;;15.87;100.00;96381.44;7391468;19;20457;-73
2023/05/06 11:01:36;;;;;;;5.80;5.40;;;;;;;16.17;100.00;96349.50;7394586;19;20752;-74
2023/05/06 11:04:08;;;;;;;4.30;4.00;;;;;;;16.21;100.00;96341.53;7397053;19;20361;-73
2023/05/06 11:06:45;;;;;;;6.20;5.03;;;;;;;16.34;100.00;96372.19;7395671;19;20412;-73
2023/05/06 11:09:20;;;;;;;3.67;3.37;;;;;;;16.30;100.00;96374.06;7391923;19;20465;-73
2023/05/06 11:11:48;;;;;;;3.67;3.37;;;;;;;16.43;100.00;96374.59;7395951;19;20416;-73
2023/05/06 11:14:25;;;;;;;4.47;4.07;;;;;;;16.62;100.00;96382.44;7393068;19;20442;-73
2023/05/06 11:16:53;;;;;;;5.50;3.60;;;;;;;16.43;100.00;96355.91;7395167;19;20337;-73
2023/05/06 11:19:22;;;;;;;4.07;3.60;;;;;;;16.68;100.00;96381.00;7392046;19;20393;-73
2023/05/06 11:21:51;;;;;;;3.87;3.57;;;;;;;16.35;100.00;96388.97;7394808;19;20424;-73
2023/05/06 11:24:23;;;;;;;4.40;4.00;;;;;;;16.93;100.00;96377.84;7395357;19;20377;-72
2023/05/06 11:26:50;;;;;;;3.20;3.00;;;;;;;17.20;100.00;96365.16;7398908;19;20417;-73
2023/05/06 11:29:18;;;;;;;4.63;3.33;;;;;;;17.50;100.00;96368.47;7398824;19;20440;-73